Time;durP1;ratioP1;P1;durP2;ratioP2;P2;SDS_P1;SDS_P2;PMS_P1;PMS_P2;Temp;Humidity;BMP_temperature;BMP_pressure;BME280_temperature;BME280_humidity;BME280_pressure;Samples;Min_cycle;Max_cycle;Signal;HPM_P1;HPM_P2
2023/10/22 00:02:08;;;;;;;3.35;1.20;;;;;;;-148.88;100.00;-17125.47;5012472;28;20030;-73
2023/10/22 00:04:33;;;;;;;5.38;1.38;;;;;;;-148.88;100.00;-17125.47;5013154;28;20054;-73
2023/10/22 00:06:59;;;;;;;4.13;1.38;;;;;;;-148.88;100.00;-17125.47;5011328;28;20551;-73
2023/10/22 00:09:24;;;;;;;5.03;1.30;;;;;;;-148.88;100.00;-17125.47;5012364;28;20540;-73
2023/10/22 00:11:49;;;;;;;4.82;1.38;;;;;;;-148.88;100.00;-17125.47;5012362;28;20401;-73
2023/10/22 00:14:15;;;;;;;3.88;1.13;;;;;;;-148.88;100.00;-17125.47;5011135;28;20409;-73
2023/10/22 00:16:40;;;;;;;3.35;1.05;;;;;;;-148.88;100.00;-17125.47;5011174;28;20022;-73
2023/10/22 00:19:06;;;;;;;6.57;1.20;;;;;;;-148.88;100.00;-17125.47;5012230;28;20082;-73
2023/10/22 00:21:32;;;;;;;4.65;1.00;;;;;;;-148.88;100.00;-17125.47;5015150;28;20145;-73
2023/10/22 00:23:57;;;;;;;3.33;0.98;;;;;;;-148.88;100.00;-17125.47;5014732;28;20018;-73
2023/10/22 00:26:23;;;;;;;3.40;1.02;;;;;;;-148.88;100.00;-17125.47;5014660;28;20477;-73
2023/10/22 00:28:48;;;;;;;3.40;1.10;;;;;;;-148.88;100.00;-17125.47;5015961;28;20014;-73
2023/10/22 00:31:13;;;;;;;5.13;1.17;;;;;;;-148.88;100.00;-17125.47;5015865;28;20485;-73
2023/10/22 00:33:39;;;;;;;5.13;1.27;;;;;;;-148.88;100.00;-17125.47;5015848;28;20488;-73
2023/10/22 00:36:04;;;;;;;3.80;0.90;;;;;;;-148.88;100.00;-17125.47;5015706;28;20469;-73
2023/10/22 00:38:30;;;;;;;4.43;1.33;;;;;;;-148.88;100.00;-17125.47;5015624;28;20492;-73
2023/10/22 00:40:55;;;;;;;3.63;1.10;;;;;;;-148.88;100.00;-17125.47;5014284;28;20037;-73
2023/10/22 00:43:21;;;;;;;3.60;1.00;;;;;;;-148.88;100.00;-17125.47;5015650;28;20022;-73
2023/10/22 00:45:47;;;;;;;2.55;1.00;;;;;;;-148.88;100.00;-17125.47;5015798;28;20029;-73
2023/10/22 00:48:15;;;;;;;8.20;1.80;;;;;;;-148.88;100.00;-17125.47;5015531;28;20493;-73
2023/10/22 00:50:41;;;;;;;6.40;1.13;;;;;;;-148.88;100.00;-17125.47;5014301;28;20056;-73
2023/10/22 00:53:08;;;;;;;3.53;1.15;;;;;;;-148.88;100.00;-17125.47;5015495;28;20101;-73
2023/10/22 00:55:36;;;;;;;3.80;1.00;;;;;;;-148.88;100.00;-17125.47;5015461;28;20022;-73
2023/10/22 00:58:05;;;;;;;6.05;1.40;;;;;;;-148.88;100.00;-17125.47;5013889;28;20029;-73
2023/10/22 01:00:31;;;;;;;4.00;1.15;;;;;;;-148.88;100.00;-17125.47;5015386;28;20025;-73
2023/10/22 01:02:56;;;;;;;4.75;1.23;;;;;;;-148.88;100.00;-17125.47;5015321;28;20542;-73
2023/10/22 01:05:22;;;;;;;3.40;1.20;;;;;;;-148.88;100.00;-17125.47;5013948;28;20048;-73
2023/10/22 01:07:47;;;;;;;4.30;1.33;;;;;;;-148.88;100.00;-17125.47;5013949;28;20029;-73
2023/10/22 01:10:13;;;;;;;4.18;1.05;;;;;;;-148.88;100.00;-17125.47;5015123;28;20056;-73
2023/10/22 01:12:39;;;;;;;2.95;0.85;;;;;;;-148.88;100.00;-17125.47;5013832;28;20392;-73
2023/10/22 01:15:06;;;;;;;5.82;1.15;;;;;;;-148.88;100.00;-17125.47;5015275;28;20030;-73
2023/10/22 01:17:32;;;;;;;7.75;1.50;;;;;;;-148.88;100.00;-17125.47;5013565;28;20378;-73
2023/10/22 01:19:57;;;;;;;5.18;1.40;;;;;;;-148.88;100.00;-17125.47;5014887;28;20495;-73
2023/10/22 01:22:23;;;;;;;3.72;1.08;;;;;;;-148.88;100.00;-17125.47;5014892;28;20032;-73
2023/10/22 01:24:48;;;;;;;3.47;0.90;;;;;;;-148.88;100.00;-17125.47;5013479;28;20392;-73
2023/10/22 01:27:14;;;;;;;5.15;1.25;;;;;;;-148.88;100.00;-17125.47;5014826;28;20117;-73
2023/10/22 01:29:39;;;;;;;4.75;1.27;;;;;;;-148.88;100.00;-17125.47;5014718;28;20021;-73
2023/10/22 01:32:05;;;;;;;5.28;1.05;;;;;;;-148.88;100.00;-17125.47;5014493;28;20022;-73
2023/10/22 01:34:31;;;;;;;3.97;1.15;;;;;;;-148.88;100.00;-17125.47;5013110;28;20032;-73
2023/10/22 01:36:56;;;;;;;3.85;1.20;;;;;;;-148.88;100.00;-17125.47;5014657;28;20057;-73
2023/10/22 01:39:22;;;;;;;5.32;1.17;;;;;;;-148.88;100.00;-17125.47;5014401;28;20578;-73
2023/10/22 01:41:49;;;;;;;2.70;0.90;;;;;;;-148.88;100.00;-17125.47;5014441;28;20547;-73
2023/10/22 01:44:15;;;;;;;6.13;1.20;;;;;;;-148.88;100.00;-17125.47;5014383;28;20104;-73
2023/10/22 01:46:40;;;;;;;4.40;0.90;;;;;;;-148.88;100.00;-17125.47;5013327;28;20064;-73
2023/10/22 01:49:05;;;;;;;3.40;1.10;;;;;;;-148.88;100.00;-17125.47;5013106;28;20124;-72
2023/10/22 01:51:31;;;;;;;4.70;1.00;;;;;;;-148.88;100.00;-17125.47;5014316;28;20477;-73
2023/10/22 01:53:56;;;;;;;4.38;1.10;;;;;;;-148.88;100.00;-17125.47;5012976;28;20511;-73
2023/10/22 01:56:22;;;;;;;6.03;1.00;;;;;;;-148.88;100.00;-17125.47;5012926;28;20073;-73
2023/10/22 01:58:47;;;;;;;2.80;0.90;;;;;;;-148.88;100.00;-17125.47;5014140;28;20057;-72
2023/10/22 02:01:12;;;;;;;4.97;0.98;;;;;;;-148.88;100.00;-17125.47;5014367;28;20053;-73
2023/10/22 02:03:40;;;;;;;3.10;1.13;;;;;;;-148.88;100.00;-17125.47;5014130;28;20384;-73
2023/10/22 02:06:22;;;;;;;4.50;1.17;;;;;;;-148.88;100.00;-17125.47;5012619;28;20049;-73
2023/10/22 02:08:47;;;;;;;6.28;1.20;;;;;;;-148.88;100.00;-17125.47;5014088;28;20504;-72
2023/10/22 02:11:12;;;;;;;7.13;1.35;;;;;;;-148.88;100.00;-17125.47;5013935;28;20046;-73
2023/10/22 02:13:38;;;;;;;3.70;1.10;;;;;;;-148.88;100.00;-17125.47;5012601;28;20053;-73
2023/10/22 02:16:03;;;;;;;4.18;1.00;;;;;;;-148.88;100.00;-17125.47;5012547;28;20389;-73
2023/10/22 02:18:29;;;;;;;5.93;1.05;;;;;;;-148.88;100.00;-17125.47;5013605;28;20389;-72
2023/10/22 02:20:56;;;;;;;5.85;1.75;;;;;;;-148.88;100.00;-17125.47;5012326;28;20083;-73
2023/10/22 02:23:22;;;;;;;5.80;1.60;;;;;;;-148.88;100.00;-17125.47;5013677;28;20018;-73
2023/10/22 02:25:51;;;;;;;3.22;1.10;;;;;;;-148.88;100.00;-17125.47;5013880;28;20033;-73
2023/10/22 02:28:17;;;;;;;4.88;1.40;;;;;;;-148.88;100.00;-17125.47;5013643;28;20037;-73
2023/10/22 02:30:44;;;;;;;3.45;0.80;;;;;;;-148.88;100.00;-17125.47;5012292;28;20029;-73
2023/10/22 02:33:09;;;;;;;5.20;1.23;;;;;;;-148.88;100.00;-17125.47;5013542;28;20080;-73
2023/10/22 02:35:42;;;;;;;3.47;0.80;;;;;;;-148.88;100.00;-17125.47;5013491;28;20034;-73
2023/10/22 02:38:10;;;;;;;3.63;1.13;;;;;;;-148.88;100.00;-17125.47;5013761;28;20030;-73
2023/10/22 02:40:35;;;;;;;3.03;1.05;;;;;;;-148.88;100.00;-17125.47;5013364;28;20037;-73
2023/10/22 02:43:02;;;;;;;4.53;1.00;;;;;;;-148.88;100.00;-17125.47;5012775;28;20400;-73
2023/10/22 02:45:27;;;;;;;3.30;0.80;;;;;;;-148.88;100.00;-17125.47;5013357;28;20076;-72
2023/10/22 02:47:53;;;;;;;5.38;1.20;;;;;;;-148.88;100.00;-17125.47;5013264;28;20018;-73
2023/10/22 02:50:18;;;;;;;3.35;1.27;;;;;;;-148.88;100.00;-17125.47;5013243;28;20026;-73
2023/10/22 02:52:44;;;;;;;3.70;0.80;;;;;;;-148.88;100.00;-17125.47;5011876;28;20017;-73
2023/10/22 02:55:09;;;;;;;5.82;1.65;;;;;;;-148.88;100.00;-17125.47;5011919;28;20117;-73
2023/10/22 02:57:34;;;;;;;4.70;0.95;;;;;;;-148.88;100.00;-17125.47;5012991;28;20107;-73
2023/10/22 03:00:00;;;;;;;3.78;1.10;;;;;;;-148.88;100.00;-17125.47;5013024;28;20093;-73
2023/10/22 03:02:25;;;;;;;2.47;0.93;;;;;;;-148.88;100.00;-17125.47;5012994;28;20036;-73
2023/10/22 03:04:50;;;;;;;4.93;1.00;;;;;;;-148.88;100.00;-17125.47;5011687;28;20025;-73
2023/10/22 03:07:16;;;;;;;8.38;1.20;;;;;;;-148.88;100.00;-17125.47;5013025;28;20033;-72
2023/10/22 03:09:41;;;;;;;3.72;1.20;;;;;;;-148.88;100.00;-17125.47;5012828;28;20026;-73
2023/10/22 03:12:07;;;;;;;5.68;1.20;;;;;;;-148.88;100.00;-17125.47;5012993;28;20029;-73
2023/10/22 03:14:32;;;;;;;3.33;1.10;;;;;;;-148.88;100.00;-17125.47;5012879;28;20029;-73
2023/10/22 03:16:58;;;;;;;3.67;1.15;;;;;;;-148.88;100.00;-17125.47;5012872;28;20036;-73
2023/10/22 03:19:24;;;;;;;4.20;1.10;;;;;;;-148.88;100.00;-17125.47;5011325;28;20022;-73
2023/10/22 03:21:49;;;;;;;6.70;1.15;;;;;;;-148.88;100.00;-17125.47;5012779;28;20029;-73
2023/10/22 03:24:17;;;;;;;5.20;0.90;;;;;;;-148.88;100.00;-17125.47;5012891;28;20056;-73
2023/10/22 03:26:43;;;;;;;4.93;1.02;;;;;;;-148.88;100.00;-17125.47;5012905;28;20022;-73
2023/10/22 03:29:08;;;;;;;3.10;0.98;;;;;;;-148.88;100.00;-17125.47;5012502;28;20022;-72
2023/10/22 03:31:34;;;;;;;4.07;1.00;;;;;;;-148.88;100.00;-17125.47;5012950;28;20160;-73
2023/10/22 03:34:01;;;;;;;4.85;0.88;;;;;;;-148.88;100.00;-17125.47;5012519;28;20026;-73
2023/10/22 03:36:27;;;;;;;4.35;1.10;;;;;;;-148.88;100.00;-17125.47;5012789;28;20029;-73
2023/10/22 03:38:52;;;;;;;5.43;1.10;;;;;;;-148.88;100.00;-17125.47;5012469;28;20030;-72
2023/10/22 03:41:17;;;;;;;4.70;0.85;;;;;;;-148.88;100.00;-17125.47;5012545;28;20033;-73
2023/10/22 03:43:43;;;;;;;3.45;1.08;;;;;;;-148.88;100.00;-17125.47;5012589;28;20034;-73
2023/10/22 03:46:09;;;;;;;4.90;1.20;;;;;;;-148.88;100.00;-17125.47;5012538;28;20018;-73
2023/10/22 03:48:34;;;;;;;8.48;1.40;;;;;;;-148.88;100.00;-17125.47;5011124;28;20021;-73
2023/10/22 03:51:00;;;;;;;2.85;0.98;;;;;;;-148.88;100.00;-17125.47;5012293;28;20029;-73
2023/10/22 03:53:25;;;;;;;6.63;1.30;;;;;;;-148.88;100.00;-17125.47;5012496;28;20022;-73
2023/10/22 03:55:51;;;;;;;5.80;1.40;;;;;;;-148.88;100.00;-17125.47;5014790;28;20018;-73
2023/10/22 03:58:16;;;;;;;4.53;1.20;;;;;;;-148.88;100.00;-17125.47;5016436;28;20511;-73
2023/10/22 04:00:42;;;;;;;6.28;1.38;;;;;;;-148.88;100.00;-17125.47;5015058;28;20030;-73
2023/10/22 04:03:07;;;;;;;5.30;1.33;;;;;;;-148.88;100.00;-17125.47;5016428;28;20025;-73
2023/10/22 04:05:33;;;;;;;5.28;1.48;;;;;;;-148.88;100.00;-17125.47;5016297;28;20021;-73
2023/10/22 04:07:58;;;;;;;3.80;1.27;;;;;;;-148.88;100.00;-17125.47;5016675;28;20022;-73
2023/10/22 04:10:24;;;;;;;3.75;1.27;;;;;;;-148.88;100.00;-17125.47;5016108;28;20121;-73
2023/10/22 04:12:49;;;;;;;5.10;1.45;;;;;;;-148.88;100.00;-17125.47;5016332;28;20095;-73
2023/10/22 04:15:15;;;;;;;5.35;1.08;;;;;;;-148.88;100.00;-17125.47;5014851;28;20022;-73
2023/10/22 04:17:40;;;;;;;4.30;1.02;;;;;;;-148.88;100.00;-17125.47;5014730;28;20080;-73
2023/10/22 04:20:06;;;;;;;4.38;1.42;;;;;;;-148.88;100.00;-17125.47;5015945;28;20033;-73
2023/10/22 04:22:32;;;;;;;5.25;1.10;;;;;;;-148.88;100.00;-17125.47;5015952;28;20021;-73
2023/10/22 04:24:58;;;;;;;5.03;1.13;;;;;;;-148.88;100.00;-17125.47;5015952;28;20373;-73
2023/10/22 04:27:23;;;;;;;5.03;1.17;;;;;;;-148.88;100.00;-17125.47;5016227;28;20105;-73
2023/10/22 04:29:49;;;;;;;4.65;1.02;;;;;;;-148.88;100.00;-17125.47;5015950;28;20481;-73
2023/10/22 04:32:16;;;;;;;3.50;1.10;;;;;;;-148.88;100.00;-17125.47;5014533;28;20029;-73
2023/10/22 04:34:42;;;;;;;5.28;1.23;;;;;;;-148.88;100.00;-17125.47;5014280;28;20049;-73
2023/10/22 04:37:09;;;;;;;4.80;1.20;;;;;;;-148.88;100.00;-17125.47;5015608;28;20065;-73
2023/10/22 04:39:35;;;;;;;3.08;0.95;;;;;;;-148.88;100.00;-17125.47;5015768;28;20018;-73
2023/10/22 04:42:01;;;;;;;4.95;1.10;;;;;;;-148.88;100.00;-17125.47;5015838;28;20099;-74
2023/10/22 04:44:26;;;;;;;5.47;0.98;;;;;;;-148.88;100.00;-17125.47;5015520;28;20373;-73
2023/10/22 04:46:52;;;;;;;3.72;1.08;;;;;;;-148.88;100.00;-17125.47;5014322;28;20022;-73
2023/10/22 04:49:17;;;;;;;4.95;1.33;;;;;;;-148.88;100.00;-17125.47;5015427;28;20030;-73
2023/10/22 04:51:43;;;;;;;4.28;1.00;;;;;;;-148.88;100.00;-17125.47;5015450;28;20093;-73
2023/10/22 04:54:08;;;;;;;2.60;0.95;;;;;;;-148.88;100.00;-17125.47;5014057;28;20076;-73
2023/10/22 04:56:34;;;;;;;5.03;1.10;;;;;;;-148.88;100.00;-17125.47;5015429;28;20044;-73
2023/10/22 04:59:00;;;;;;;3.08;1.08;;;;;;;-148.88;100.00;-17125.47;5014978;28;20033;-73
2023/10/22 05:01:25;;;;;;;4.00;0.80;;;;;;;-148.88;100.00;-17125.47;5015204;28;20195;-73
2023/10/22 05:03:50;;;;;;;3.58;1.02;;;;;;;-148.88;100.00;-17125.47;5015277;28;20037;-73
2023/10/22 05:06:16;;;;;;;4.75;1.20;;;;;;;-148.88;100.00;-17125.47;5014418;28;20121;-73
2023/10/22 05:08:41;;;;;;;4.38;1.00;;;;;;;-148.88;100.00;-17125.47;5013467;28;20101;-73
2023/10/22 05:11:12;;;;;;;2.92;0.90;;;;;;;-148.88;100.00;-17125.47;5013891;28;20132;-73
2023/10/22 05:13:37;;;;;;;3.45;1.02;;;;;;;-148.88;100.00;-17125.47;5014884;28;20038;-74
2023/10/22 05:16:07;;;;;;;3.00;1.00;;;;;;;-148.88;100.00;-17125.47;5015244;28;20435;-72
2023/10/22 05:18:32;;;;;;;4.57;1.08;;;;;;;-148.88;100.00;-17125.47;5014748;28;20105;-73
2023/10/22 05:21:05;;;;;;;4.75;1.38;;;;;;;-148.88;100.00;-17125.47;5013381;28;20080;-73
2023/10/22 05:23:34;;;;;;;4.17;1.00;;;;;;;-148.88;100.00;-17125.47;5014655;28;20114;-73
2023/10/22 05:26:08;;;;;;;3.15;0.80;;;;;;;-148.88;100.00;-17125.47;5014719;28;20278;-74
2023/10/22 05:28:33;;;;;;;3.15;0.90;;;;;;;-148.88;100.00;-17125.47;5013263;28;20467;-73
2023/10/22 05:30:59;;;;;;;4.25;0.85;;;;;;;-148.88;100.00;-17125.47;5013332;28;20175;-74
2023/10/22 05:33:25;;;;;;;3.65;0.85;;;;;;;-148.88;100.00;-17125.47;5013524;28;20061;-74
2023/10/22 05:35:50;;;;;;;4.43;1.00;;;;;;;-148.88;100.00;-17125.47;5014501;28;20034;-74
2023/10/22 05:38:15;;;;;;;2.67;0.80;;;;;;;-148.88;100.00;-17125.47;5014428;28;20029;-74
2023/10/22 05:40:41;;;;;;;2.47;0.80;;;;;;;-148.88;100.00;-17125.47;5014457;28;20057;-74
2023/10/22 05:43:06;;;;;;;3.60;0.80;;;;;;;-148.88;100.00;-17125.47;5012976;28;20065;-74
2023/10/22 05:45:32;;;;;;;4.72;0.90;;;;;;;-148.88;100.00;-17125.47;5014302;28;20046;-74
2023/10/22 05:47:58;;;;;;;2.20;0.50;;;;;;;-148.88;100.00;-17125.47;5014329;28;20088;-74
2023/10/22 05:50:23;;;;;;;3.60;0.80;;;;;;;-148.88;100.00;-17125.47;5014460;28;20330;-73
2023/10/22 05:52:50;;;;;;;1.95;0.88;;;;;;;-148.88;100.00;-17125.47;5012878;28;20076;-74
2023/10/22 05:55:16;;;;;;;3.25;0.80;;;;;;;-148.88;100.00;-17125.47;5014080;28;20029;-73
2023/10/22 05:57:44;;;;;;;3.83;0.93;;;;;;;-148.88;100.00;-17125.47;5013990;28;20477;-73
2023/10/22 06:00:11;;;;;;;2.63;0.80;;;;;;;-148.88;100.00;-17125.47;5012643;28;20026;-73
2023/10/22 06:02:37;;;;;;;6.65;0.93;;;;;;;-148.88;100.00;-17125.47;5013987;28;20026;-74
2023/10/22 06:05:03;;;;;;;2.35;0.70;;;;;;;-148.88;100.00;-17125.47;5012658;28;20041;-73
2023/10/22 06:07:29;;;;;;;2.58;0.73;;;;;;;-148.88;100.00;-17125.47;5013993;28;20026;-74
2023/10/22 06:09:54;;;;;;;2.30;0.80;;;;;;;-148.88;100.00;-17125.47;5014120;28;20018;-73
2023/10/22 06:12:19;;;;;;;4.05;0.88;;;;;;;-148.88;100.00;-17125.47;5013887;28;20021;-75
2023/10/22 06:14:45;;;;;;;2.75;0.85;;;;;;;-148.88;100.00;-17125.47;5014025;28;20073;-75
2023/10/22 06:17:10;;;;;;;2.50;0.70;;;;;;;-148.88;100.00;-17125.47;5012087;28;20481;-74
2023/10/22 06:19:36;;;;;;;3.05;0.90;;;;;;;-148.88;100.00;-17125.47;5011729;28;20030;-74
2023/10/22 06:22:01;;;;;;;3.25;0.65;;;;;;;-148.88;100.00;-17125.47;5013608;28;20149;-75
2023/10/22 06:24:26;;;;;;;2.50;0.75;;;;;;;-148.88;100.00;-17125.47;5014554;28;20500;-74
2023/10/22 06:26:52;;;;;;;3.55;0.77;;;;;;;-148.88;100.00;-17125.47;5012286;28;20033;-73
2023/10/22 06:29:17;;;;;;;2.78;0.75;;;;;;;-148.88;100.00;-17125.47;5013567;28;20022;-73
2023/10/22 06:31:42;;;;;;;2.42;0.50;;;;;;;-148.88;100.00;-17125.47;5013517;28;20057;-73
2023/10/22 06:34:08;;;;;;;3.83;0.80;;;;;;;-148.88;100.00;-17125.47;5013392;28;20029;-73
2023/10/22 06:36:33;;;;;;;2.45;0.65;;;;;;;-148.88;100.00;-17125.47;5013462;28;20026;-73
2023/10/22 06:38:59;;;;;;;3.63;0.70;;;;;;;-148.88;100.00;-17125.47;5013510;28;20101;-73
2023/10/22 06:41:25;;;;;;;3.03;0.93;;;;;;;-148.88;100.00;-17125.47;5013330;28;20104;-74
2023/10/22 06:43:51;;;;;;;3.50;0.80;;;;;;;-148.88;100.00;-17125.47;5013309;28;20029;-73
2023/10/22 06:46:17;;;;;;;3.03;0.75;;;;;;;-148.88;100.00;-17125.47;5011909;28;20034;-73
2023/10/22 06:48:43;;;;;;;2.95;0.77;;;;;;;-148.88;100.00;-17125.47;5013297;28;20022;-72
2023/10/22 06:51:10;;;;;;;3.90;0.80;;;;;;;-148.88;100.00;-17125.47;5013287;28;20022;-73
2023/10/22 06:53:37;;;;;;;3.13;0.80;;;;;;;-148.88;100.00;-17125.47;5011739;28;20045;-73
2023/10/22 06:56:03;;;;;;;3.13;0.65;;;;;;;-148.88;100.00;-17125.47;5011648;28;20515;-73
2023/10/22 06:58:28;;;;;;;4.57;0.77;;;;;;;-148.88;100.00;-17125.47;5012953;28;20053;-73
2023/10/22 07:01:09;;;;;;;3.03;0.80;;;;;;;-148.88;100.00;-17125.47;5012852;28;20026;-73
2023/10/22 07:03:35;;;;;;;2.30;0.70;;;;;;;-148.88;100.00;-17125.47;5012968;28;20025;-74
2023/10/22 07:06:00;;;;;;;5.25;0.70;;;;;;;-148.88;100.00;-17125.47;5013394;28;20165;-73
2023/10/22 07:08:27;;;;;;;2.80;0.65;;;;;;;-148.88;100.00;-17125.47;5012962;28;20100;-73
2023/10/22 07:10:52;;;;;;;2.38;0.52;;;;;;;-148.88;100.00;-17125.47;5012843;28;20037;-73
2023/10/22 07:13:20;;;;;;;2.47;0.70;;;;;;;-148.88;100.00;-17125.47;5012893;28;20390;-73
2023/10/22 07:15:46;;;;;;;3.17;0.90;;;;;;;-148.88;100.00;-17125.47;5012739;28;20480;-73
2023/10/22 07:18:12;;;;;;;1.65;0.65;;;;;;;-148.88;100.00;-17125.47;5011428;28;20036;-73
2023/10/22 07:20:37;;;;;;;2.35;0.55;;;;;;;-148.88;100.00;-17125.47;5011148;28;20120;-73
2023/10/22 07:23:04;;;;;;;3.25;0.80;;;;;;;-148.88;100.00;-17125.47;5011209;28;20056;-73
2023/10/22 07:25:29;;;;;;;3.53;0.80;;;;;;;-148.88;100.00;-17125.47;5012614;28;20068;-74
2023/10/22 07:27:54;;;;;;;2.40;0.60;;;;;;;-148.88;100.00;-17125.47;5012665;28;20017;-73
2023/10/22 07:30:20;;;;;;;2.75;0.70;;;;;;;-148.88;100.00;-17125.47;5012374;28;20029;-73
2023/10/22 07:32:45;;;;;;;2.28;0.80;;;;;;;-148.88;100.00;-17125.47;5011132;28;20079;-73
2023/10/22 07:35:14;;;;;;;4.53;0.90;;;;;;;-148.88;100.00;-17125.47;5020762;23;20450;-85
2023/10/22 07:37:41;;;;;;;3.55;1.30;;;;;;;-148.88;100.00;-17125.47;4996802;28;20105;-86
2023/10/22 07:40:08;;;;;;;3.85;0.80;;;;;;;-148.88;100.00;-17125.47;4996748;28;20112;-87
2023/10/22 07:42:34;;;;;;;2.95;0.80;;;;;;;-148.88;100.00;-17125.47;5013154;28;20392;-86
2023/10/22 07:45:04;;;;;;;4.63;1.00;;;;;;;-148.88;100.00;-17125.47;5014056;28;20029;-83
2023/10/22 07:47:30;;;;;;;2.50;0.93;;;;;;;-148.88;100.00;-17125.47;5012849;28;20030;-86
2023/10/22 07:49:55;;;;;;;2.28;0.85;;;;;;;-148.88;100.00;-17125.47;5025969;22;20539;-74
2023/10/22 07:52:21;;;;;;;4.95;1.27;;;;;;;-148.88;100.00;-17125.47;5011292;28;20026;-75
2023/10/22 07:54:47;;;;;;;2.58;0.80;;;;;;;-148.88;100.00;-17125.47;5012866;28;20029;-75
2023/10/22 07:57:13;;;;;;;1.70;0.60;;;;;;;-148.88;100.00;-17125.47;5011337;28;20029;-75
2023/10/22 07:59:38;;;;;;;2.45;0.70;;;;;;;-148.88;100.00;-17125.47;5011391;28;20030;-75
2023/10/22 08:02:03;;;;;;;2.70;0.90;;;;;;;-148.88;100.00;-17125.47;5012862;28;20030;-75
2023/10/22 08:04:29;;;;;;;2.97;0.70;;;;;;;-148.88;100.00;-17125.47;5012830;28;20041;-75
2023/10/22 08:06:54;;;;;;;1.85;0.60;;;;;;;-148.88;100.00;-17125.47;5013254;28;20101;-74
2023/10/22 08:09:20;;;;;;;2.72;0.88;;;;;;;-148.88;100.00;-17125.47;5012559;28;20048;-74
2023/10/22 08:11:45;;;;;;;2.55;0.60;;;;;;;-148.88;100.00;-17125.47;5011364;28;20058;-75
2023/10/22 08:14:10;;;;;;;1.42;0.60;;;;;;;-148.88;100.00;-17125.47;5011257;28;20018;-75
2023/10/22 08:16:36;;;;;;;3.35;0.95;;;;;;;-148.88;100.00;-17125.47;5012796;28;20022;-75
2023/10/22 08:19:02;;;;;;;2.67;0.63;;;;;;;-148.88;100.00;-17125.47;5012634;28;20110;-75
2023/10/22 08:21:27;;;;;;;3.53;1.00;;;;;;;-148.88;100.00;-17125.47;5012887;28;20060;-74
2023/10/22 08:23:52;;;;;;;2.40;0.70;;;;;;;-148.88;100.00;-17125.47;5012672;28;20026;-75
2023/10/22 08:26:18;;;;;;;1.90;0.80;;;;;;;-148.88;100.00;-17125.47;5012738;28;20076;-74
2023/10/22 08:28:43;;;;;;;2.50;1.00;;;;;;;-148.88;100.00;-17125.47;5012642;28;20531;-75
2023/10/22 08:31:09;;;;;;;3.05;0.80;;;;;;;-148.88;100.00;-17125.47;5012435;28;20025;-74
2023/10/22 08:33:34;;;;;;;2.25;0.70;;;;;;;-148.88;100.00;-17125.47;5012325;28;20113;-75
2023/10/22 08:36:07;;;;;;;1.88;0.90;;;;;;;-148.88;100.00;-17125.47;5011035;28;20025;-75
2023/10/22 08:38:32;;;;;;;4.17;1.50;;;;;;;-148.88;100.00;-17125.47;5012406;28;20066;-75
2023/10/22 08:41:00;;;;;;;4.25;1.20;;;;;;;-148.88;100.00;-17125.47;5012742;28;20286;-75
2023/10/22 08:43:30;;;;;;;3.17;1.35;;;;;;;-148.88;100.00;-17125.47;5014596;28;20492;-74
2023/10/22 08:45:56;;;;;;;4.40;1.67;;;;;;;-148.88;100.00;-17125.47;5015967;28;20062;-74
2023/10/22 08:48:24;;;;;;;3.10;0.90;;;;;;;-148.88;100.00;-17125.47;5015707;28;20021;-75
2023/10/22 08:50:51;;;;;;;4.10;1.27;;;;;;;-148.88;100.00;-17125.47;5014344;28;20037;-74
2023/10/22 08:53:16;;;;;;;3.67;1.50;;;;;;;-148.88;100.00;-17125.47;5014408;28;20030;-75
2023/10/22 08:55:45;;;;;;;2.95;1.50;;;;;;;-148.88;100.00;-17125.47;5015615;28;20032;-74
2023/10/22 08:58:16;;;;;;;3.75;1.60;;;;;;;-148.88;100.00;-17125.47;5015511;28;20021;-74
2023/10/22 09:00:45;;;;;;;3.28;1.80;;;;;;;-148.88;100.00;-17125.47;5015524;28;20025;-74
2023/10/22 09:03:14;;;;;;;2.90;1.20;;;;;;;-148.88;100.00;-17125.47;5015667;28;20026;-74
2023/10/22 09:05:40;;;;;;;2.65;1.10;;;;;;;-148.88;100.00;-17125.47;5014184;28;20054;-74
2023/10/22 09:08:05;;;;;;;3.50;1.13;;;;;;;-148.88;100.00;-17125.47;5014066;28;20022;-75
2023/10/22 09:10:32;;;;;;;2.95;1.30;;;;;;;-148.88;100.00;-17125.47;5015443;28;20025;-75
2023/10/22 09:13:06;;;;;;;2.25;1.20;;;;;;;-148.88;100.00;-17125.47;5015506;28;20029;-74
2023/10/22 09:15:37;;;;;;;3.45;1.42;;;;;;;-148.88;100.00;-17125.47;5015295;28;20021;-74
2023/10/22 09:18:02;;;;;;;4.13;1.60;;;;;;;-148.88;100.00;-17125.47;5015179;28;20076;-74
2023/10/22 09:20:29;;;;;;;3.17;1.50;;;;;;;-148.88;100.00;-17125.47;5014146;28;20025;-74
2023/10/22 09:23:11;;;;;;;2.97;1.58;;;;;;;-148.88;100.00;-17125.47;5013978;28;20022;-74
2023/10/22 09:25:37;;;;;;;3.88;2.03;;;;;;;-148.88;100.00;-17125.47;5013876;28;20056;-74
2023/10/22 09:28:17;;;;;;;4.90;1.77;;;;;;;-148.88;100.00;-17125.47;5015121;28;20449;-74
2023/10/22 09:30:43;;;;;;;3.30;1.58;;;;;;;-148.88;100.00;-17125.47;5015688;28;20377;-74
2023/10/22 09:33:09;;;;;;;2.05;1.40;;;;;;;-148.88;100.00;-17125.47;5014990;28;20026;-74
2023/10/22 09:35:36;;;;;;;4.72;1.45;;;;;;;-148.88;100.00;-17125.47;5014845;28;20492;-74
2023/10/22 09:38:01;;;;;;;2.13;1.30;;;;;;;-148.88;100.00;-17125.47;5014873;28;20109;-75
2023/10/22 09:40:30;;;;;;;3.25;1.08;;;;;;;-148.88;100.00;-17125.47;5013410;28;20128;-74
2023/10/22 09:42:56;;;;;;;2.80;1.38;;;;;;;-148.88;100.00;-17125.47;5014817;28;20029;-75
2023/10/22 09:45:23;;;;;;;3.08;1.30;;;;;;;-148.88;100.00;-17125.47;5014776;28;20052;-74
2023/10/22 09:47:53;;;;;;;3.53;1.30;;;;;;;-148.88;100.00;-17125.47;5014716;28;20105;-74
2023/10/22 09:50:20;;;;;;;2.58;1.10;;;;;;;-148.88;100.00;-17125.47;5014497;28;20037;-74
2023/10/22 09:52:49;;;;;;;2.60;1.30;;;;;;;-148.88;100.00;-17125.47;5014511;28;20025;-75
2023/10/22 09:55:16;;;;;;;3.10;1.17;;;;;;;-148.88;100.00;-17125.47;5014635;28;20485;-74
2023/10/22 09:57:45;;;;;;;2.05;1.15;;;;;;;-148.88;100.00;-17125.47;5014477;28;20025;-75
2023/10/22 10:00:14;;;;;;;3.00;1.27;;;;;;;-148.88;100.00;-17125.47;5014464;28;20022;-75
2023/10/22 10:02:40;;;;;;;2.83;1.02;;;;;;;-148.88;100.00;-17125.47;5014579;28;20110;-75
2023/10/22 10:05:07;;;;;;;2.60;1.20;;;;;;;-148.88;100.00;-17125.47;5014679;28;20439;-75
2023/10/22 10:07:32;;;;;;;4.20;1.35;;;;;;;-148.88;100.00;-17125.47;5014342;28;20030;-75
2023/10/22 10:10:00;;;;;;;3.47;1.15;;;;;;;-148.88;100.00;-17125.47;5014318;28;20113;-75
2023/10/22 10:12:28;;;;;;;3.10;1.30;;;;;;;-148.88;100.00;-17125.47;5014253;28;20033;-74
2023/10/22 10:14:54;;;;;;;3.65;1.27;;;;;;;-148.88;100.00;-17125.47;5013107;28;20034;-75
2023/10/22 10:17:20;;;;;;;2.10;1.00;;;;;;;-148.88;100.00;-17125.47;5014313;28;20109;-75
2023/10/22 10:19:49;;;;;;;2.20;0.95;;;;;;;-148.88;100.00;-17125.47;5012834;28;20584;-75
2023/10/22 10:23:01;;;;;;;2.05;0.98;;;;;;;-148.88;100.00;-17125.47;5014168;28;20058;-75
2023/10/22 10:25:34;;;;;;;3.28;1.15;;;;;;;-148.88;100.00;-17125.47;4978011;28;20034;-76
2023/10/22 10:28:01;;;;;;;2.60;0.80;;;;;;;-148.88;100.00;-17125.47;5012927;28;20389;-75
2023/10/22 10:30:27;;;;;;;2.30;1.05;;;;;;;-148.88;100.00;-17125.47;5012679;28;20030;-75
2023/10/22 10:32:53;;;;;;;2.83;1.00;;;;;;;-148.88;100.00;-17125.47;5014593;28;20026;-75
2023/10/22 10:35:19;;;;;;;4.03;1.38;;;;;;;-148.88;100.00;-17125.47;5014285;28;20109;-75
2023/10/22 10:38:17;;;;;;;2.58;1.10;;;;;;;-148.88;99.48;-17125.47;5014078;28;20069;-75
2023/10/22 10:40:47;;;;;;;2.50;1.00;;;;;;;-148.88;98.11;-17125.47;5014852;28;20030;-75
2023/10/22 10:43:13;;;;;;;4.07;0.80;;;;;;;-148.88;95.75;-17125.47;5014361;28;20022;-76
2023/10/22 10:45:43;;;;;;;2.45;0.90;;;;;;;-148.88;91.61;-17125.47;5012311;28;20033;-75
2023/10/22 10:48:45;;;;;;;3.20;0.98;;;;;;;-148.88;93.27;-17125.47;5013447;28;20030;-75
2023/10/22 10:51:24;;;;;;;3.17;1.00;;;;;;;-148.88;94.49;-17125.47;5014008;28;20029;-75
2023/10/22 10:54:07;;;;;;;2.70;1.00;;;;;;;-148.88;93.24;-17125.47;5012490;28;20116;-75
2023/10/22 10:56:55;;;;;;;1.45;0.60;;;;;;;-148.88;90.96;-17125.47;5013599;28;20022;-74
2023/10/22 10:59:40;;;;;;;2.35;0.70;;;;;;;-148.88;93.04;-17125.47;5011911;28;20056;-75
2023/10/22 11:02:07;;;;;;;1.38;0.60;;;;;;;-148.88;93.81;-17125.47;5013725;28;20026;-75